Time;durP1;ratioP1;P1;durP2;ratioP2;P2;SDS_P1;SDS_P2;PMS_P1;PMS_P2;Temp;Humidity;BMP_temperature;BMP_pressure;BME280_temperature;BME280_humidity;BME280_pressure;Samples;Min_cycle;Max_cycle;Signal;HPM_P1;HPM_P2
2021/08/11 00:00:08;;;;;;;4.40;2.42;;;;;;;20.75;73.01;101329.69;5073836;28;20048;-68
2021/08/11 00:02:36;;;;;;;6.13;2.70;;;;;;;20.41;74.83;101328.56;5054291;28;20064;-67
2021/08/11 00:05:04;;;;;;;7.15;2.75;;;;;;;20.21;76.26;101332.47;5072993;28;20064;-67
2021/08/11 00:07:31;;;;;;;4.82;2.45;;;;;;;20.46;75.14;101333.06;5073353;28;20472;-67
2021/08/11 00:09:59;;;;;;;4.32;2.42;;;;;;;20.36;75.59;101339.22;5073334;28;20044;-66
2021/08/11 00:12:26;;;;;;;5.65;2.42;;;;;;;20.21;76.40;101346.47;5074784;28;20388;-68
2021/08/11 00:14:53;;;;;;;4.60;2.50;;;;;;;19.86;77.57;101342.75;5093335;28;20495;-67
2021/08/11 00:17:20;;;;;;;4.90;2.13;;;;;;;19.88;77.46;101344.03;5093560;28;20040;-67
2021/08/11 00:19:50;;;;;;;4.90;2.55;;;;;;;19.76;78.15;101346.91;5093391;28;20048;-68
2021/08/11 00:22:18;;;;;;;4.32;2.50;;;;;;;19.75;77.97;101344.47;5074813;28;20118;-68
2021/08/11 00:24:45;;;;;;;7.55;2.10;;;;;;;19.89;77.97;101342.03;5096542;28;20047;-67
2021/08/11 00:27:12;;;;;;;5.18;2.20;;;;;;;20.00;76.89;101349.53;5097283;28;20048;-67
2021/08/11 00:29:39;;;;;;;6.03;2.45;;;;;;;19.86;77.54;101342.75;5097430;28;20071;-67
2021/08/11 00:32:07;;;;;;;5.13;2.15;;;;;;;19.74;78.70;101354.84;5078915;28;20052;-66
2021/08/11 00:34:34;;;;;;;4.85;2.28;;;;;;;19.77;78.39;101353.31;5078426;28;20075;-67
2021/08/11 00:37:02;;;;;;;5.88;2.28;;;;;;;19.81;78.27;101352.22;5078861;28;20044;-67
2021/08/11 00:39:33;;;;;;;5.53;2.47;;;;;;;19.72;78.83;101359.16;5062293;28;20051;-67
2021/08/11 00:42:02;;;;;;;5.25;2.28;;;;;;;19.41;80.19;101364.69;5061823;28;20056;-67
2021/08/11 00:44:29;;;;;;;7.25;2.50;;;;;;;19.62;79.83;101379.25;5097011;28;20048;-67
2021/08/11 00:46:56;;;;;;;6.07;2.63;;;;;;;19.51;79.87;101370.56;5062181;28;20060;-67
2021/08/11 00:49:23;;;;;;;4.90;2.40;;;;;;;19.55;80.45;101371.50;5079132;28;20075;-68
2021/08/11 00:51:54;;;;;;;4.57;2.30;;;;;;;19.45;80.13;101387.97;5078761;28;20052;-67
2021/08/11 00:54:22;;;;;;;3.15;1.98;;;;;;;19.66;80.02;101383.78;5061368;28;20336;-61
2021/08/11 00:56:52;;;;;;;3.35;2.05;;;;;;;19.64;79.03;101386.13;5061176;28;20052;-61
2021/08/11 00:59:21;;;;;;;4.43;2.30;;;;;;;19.54;79.51;101389.44;5045483;28;20483;-67
2021/08/11 01:01:53;;;;;;;3.75;2.00;;;;;;;19.56;79.29;101387.06;5078009;28;20059;-68
2021/08/11 01:04:22;;;;;;;3.55;1.95;;;;;;;19.48;79.80;101379.69;5078075;28;20044;-67
2021/08/11 01:06:52;;;;;;;6.22;2.35;;;;;;;19.62;78.88;101390.44;5078073;28;20052;-68
2021/08/11 01:09:20;;;;;;;3.03;1.90;;;;;;;19.61;78.35;101386.84;5078178;28;20044;-67
2021/08/11 01:11:54;;;;;;;4.05;1.95;;;;;;;20.07;76.35;101379.63;5078112;28;20487;-67
2021/08/11 01:14:24;;;;;;;5.90;1.80;;;;;;;20.31;75.12;101371.06;5059863;28;20074;-61
2021/08/11 01:16:53;;;;;;;6.45;2.08;;;;;;;20.08;73.46;101365.28;5057942;28;20056;-67
2021/08/11 01:19:20;;;;;;;3.78;1.85;;;;;;;19.82;74.00;101365.03;5075395;28;20068;-67
2021/08/11 01:21:54;;;;;;;4.53;1.83;;;;;;;20.19;73.23;101362.78;5041288;28;20048;-62
2021/08/11 01:24:40;;;;;;;4.47;1.80;;;;;;;20.20;71.84;101358.84;5041529;28;20052;-62
2021/08/11 01:27:12;;;;;;;3.50;1.80;;;;;;;20.09;72.44;101352.94;5041278;28;20064;-67
2021/08/11 01:30:04;;;;;;;3.60;1.60;;;;;;;20.26;71.74;101351.78;5057747;28;20046;-68
2021/08/11 01:32:54;;;;;;;2.58;1.50;;;;;;;20.36;70.46;101353.22;5075706;28;20380;-62
2021/08/11 01:35:25;;;;;;;3.83;1.65;;;;;;;19.87;71.36;101352.78;5055804;28;20052;-62
2021/08/11 01:37:54;;;;;;;4.18;1.90;;;;;;;19.49;72.56;101358.16;5057747;28;20468;-61
2021/08/11 01:40:27;;;;;;;3.13;1.80;;;;;;;19.38;72.65;101355.06;5040768;28;20044;-62
2021/08/11 01:42:57;;;;;;;5.25;2.10;;;;;;;19.53;72.60;101356.25;5041154;28;20056;-61
2021/08/11 01:45:44;;;;;;;4.90;2.15;;;;;;;19.76;70.94;101349.69;5041174;28;20056;-62
2021/08/11 01:48:14;;;;;;;5.10;2.15;;;;;;;19.99;71.28;101347.91;5057288;28;20052;-62
2021/08/11 01:50:45;;;;;;;4.38;2.05;;;;;;;20.04;69.59;101346.81;5041028;28;20053;-62
2021/08/11 01:53:19;;;;;;;3.28;1.92;;;;;;;19.63;71.85;101342.56;5041552;28;20052;-62
2021/08/11 01:55:50;;;;;;;3.65;2.10;;;;;;;19.82;71.52;101334.25;5040810;28;20139;-62
2021/08/11 01:58:27;;;;;;;4.72;2.00;;;;;;;20.26;71.53;101323.00;5024510;28;20052;-67
2021/08/11 02:00:57;;;;;;;5.95;2.10;;;;;;;20.50;69.33;101331.16;5039959;28;20511;-67
2021/08/11 02:03:26;;;;;;;6.00;2.13;;;;;;;20.49;68.73;101323.91;5040907;28;20049;-66
2021/08/11 02:05:56;;;;;;;4.22;2.20;;;;;;;20.06;68.18;101328.50;5040727;28;20388;-67
2021/08/11 02:08:24;;;;;;;5.20;2.20;;;;;;;19.86;69.10;101329.59;5040467;28;20617;-66
2021/08/11 02:10:55;;;;;;;4.93;2.40;;;;;;;19.80;69.01;101333.84;5056079;28;20094;-67
2021/08/11 02:13:24;;;;;;;5.07;2.00;;;;;;;19.83;70.79;101330.31;5066988;28;20055;-67
2021/08/11 02:15:53;;;;;;;6.38;2.05;;;;;;;20.03;68.99;101328.41;5060673;28;20070;-67
2021/08/11 02:18:21;;;;;;;5.45;2.00;;;;;;;19.99;69.64;101322.75;5060286;28;20055;-67
2021/08/11 02:20:53;;;;;;;4.63;2.08;;;;;;;19.44;70.20;101322.88;5043650;28;20043;-67
2021/08/11 02:23:21;;;;;;;3.70;2.20;;;;;;;19.58;72.29;101320.47;5076975;28;20052;-67
2021/08/11 02:25:58;;;;;;;7.43;2.20;;;;;;;19.65;70.05;101329.03;5076317;28;20052;-66
2021/08/11 02:28:48;;;;;;;7.72;2.30;;;;;;;19.73;70.72;101330.03;5076653;28;20060;-67
2021/08/11 02:31:45;;;;;;;3.53;1.80;;;;;;;19.64;69.86;101326.59;5060525;28;20047;-66
2021/08/11 02:34:26;;;;;;;6.35;2.30;;;;;;;19.33;71.86;101340.53;5058714;28;20161;-67
2021/08/11 02:36:57;;;;;;;5.80;2.75;;;;;;;19.55;70.18;101324.00;5075885;28;20062;-66
2021/08/11 02:39:30;;;;;;;4.35;2.38;;;;;;;19.70;72.36;101325.19;5070891;28;20150;-66
2021/08/11 02:42:04;;;;;;;3.95;1.95;;;;;;;19.95;71.77;101327.44;5055704;28;20052;-61
2021/08/11 02:44:41;;;;;;;7.07;2.10;;;;;;;20.22;69.75;101322.91;5053932;28;20052;-61
2021/08/11 02:47:09;;;;;;;6.32;2.30;;;;;;;20.15;69.31;101319.91;5059411;28;20058;-61
2021/08/11 02:49:37;;;;;;;6.10;2.35;;;;;;;20.49;69.56;101313.56;5076231;28;20048;-61
2021/08/11 02:52:08;;;;;;;4.10;2.08;;;;;;;20.70;68.59;101313.19;5060408;28;20047;-62
2021/08/11 02:54:38;;;;;;;5.95;2.05;;;;;;;20.73;66.57;101313.28;5059746;28;20048;-62
2021/08/11 02:57:05;;;;;;;6.30;2.20;;;;;;;20.78;67.65;101320.59;5058847;28;20056;-61
2021/08/11 02:59:33;;;;;;;3.00;1.95;;;;;;;20.66;66.04;101326.34;5053549;28;20036;-61
2021/08/11 03:02:03;;;;;;;4.18;2.30;;;;;;;20.64;67.28;101328.69;5040028;28;20076;-61
2021/08/11 03:04:32;;;;;;;7.72;2.33;;;;;;;20.61;67.79;101330.22;5052818;28;20044;-61
2021/08/11 03:06:59;;;;;;;4.85;2.53;;;;;;;20.68;67.25;101321.97;5059096;28;20522;-61
2021/08/11 03:09:27;;;;;;;5.38;2.30;;;;;;;20.67;67.34;101320.38;5093743;28;20447;-61
2021/08/11 03:11:55;;;;;;;4.22;2.20;;;;;;;20.73;67.61;101321.69;5059102;28;20055;-60
2021/08/11 03:14:23;;;;;;;5.80;2.58;;;;;;;20.84;67.29;101319.09;5092470;28;20395;-61
2021/08/11 03:16:50;;;;;;;3.53;1.92;;;;;;;20.89;67.94;101318.81;5059285;28;20060;-60
2021/08/11 03:19:18;;;;;;;3.97;2.15;;;;;;;20.87;68.06;101321.19;5085974;28;20036;-61
2021/08/11 03:21:47;;;;;;;5.00;2.40;;;;;;;20.85;69.67;101323.53;5038973;28;20052;-67
2021/08/11 03:24:17;;;;;;;3.90;2.25;;;;;;;20.87;69.77;101326.78;5055340;28;20577;-67
2021/08/11 03:26:45;;;;;;;5.80;2.40;;;;;;;20.78;70.33;101335.38;5073528;28;20045;-66
2021/08/11 03:29:12;;;;;;;5.47;2.28;;;;;;;20.78;70.65;101332.59;5005812;28;20045;-67
2021/08/11 03:31:43;;;;;;;4.93;2.38;;;;;;;20.89;70.34;101339.22;5048151;28;20066;-67
2021/08/11 03:34:12;;;;;;;5.72;2.33;;;;;;;20.84;70.72;101335.91;5075587;28;20056;-68
2021/08/11 03:36:40;;;;;;;4.28;2.00;;;;;;;20.81;70.67;101336.66;5075647;28;20514;-67
2021/08/11 03:39:08;;;;;;;4.28;2.40;;;;;;;20.57;72.12;101337.75;5075534;28;20062;-67
2021/08/11 03:41:37;;;;;;;6.13;2.40;;;;;;;20.56;72.18;101336.09;5075017;28;20051;-67
2021/08/11 03:44:04;;;;;;;5.28;2.22;;;;;;;20.47;72.36;101343.09;5057675;28;20048;-62
2021/08/11 03:46:36;;;;;;;4.40;2.10;;;;;;;20.53;72.60;101339.63;5074486;28;20052;-62
2021/08/11 03:49:03;;;;;;;3.92;2.20;;;;;;;20.56;72.39;101352.91;5074592;28;20063;-61
2021/08/11 03:51:31;;;;;;;4.95;2.17;;;;;;;20.51;72.53;101355.16;5074616;28;20060;-61
2021/08/11 03:53:59;;;;;;;4.68;2.50;;;;;;;20.43;72.93;101347.78;5075520;28;20048;-61
2021/08/11 03:56:27;;;;;;;4.75;2.30;;;;;;;20.47;73.21;101348.69;5058123;28;20047;-61
2021/08/11 03:58:55;;;;;;;4.28;2.10;;;;;;;20.45;73.30;101351.03;5077197;28;20048;-61
2021/08/11 04:01:22;;;;;;;4.53;2.20;;;;;;;20.43;73.60;101357.00;5097391;28;20383;-61
2021/08/11 04:03:50;;;;;;;5.07;2.15;;;;;;;20.48;73.13;101358.69;5097133;28;20044;-62
2021/08/11 04:06:17;;;;;;;3.63;2.05;;;;;;;20.74;72.53;101356.91;5079407;28;20748;-62
2021/08/11 04:08:44;;;;;;;6.75;2.53;;;;;;;20.54;73.25;101355.25;5097455;28;20050;-62
2021/08/11 04:11:11;;;;;;;5.40;2.30;;;;;;;20.57;73.40;101359.31;5096983;28;20044;-68
2021/08/11 04:13:38;;;;;;;6.40;2.30;;;;;;;20.66;72.76;101359.94;5085385;28;20044;-63
2021/08/11 04:16:06;;;;;;;4.70;2.30;;;;;;;20.45;73.51;101356.63;5077268;28;20048;-66
2021/08/11 04:18:33;;;;;;;4.55;2.30;;;;;;;20.46;72.83;101359.06;5077136;28;20071;-67
2021/08/11 04:21:00;;;;;;;4.97;2.60;;;;;;;20.53;72.96;101359.22;5076405;28;20040;-67
2021/08/11 04:23:27;;;;;;;5.72;2.40;;;;;;;20.60;73.12;101362.19;5076954;28;20044;-68
2021/08/11 04:25:55;;;;;;;5.20;2.30;;;;;;;20.68;72.51;101360.34;5058905;28;20055;-68
2021/08/11 04:28:22;;;;;;;5.68;2.15;;;;;;;20.61;72.53;101357.38;5059006;28;20059;-67
2021/08/11 04:30:49;;;;;;;6.07;2.05;;;;;;;20.64;72.25;101356.69;5076648;28;20045;-67
2021/08/11 04:33:18;;;;;;;4.05;2.03;;;;;;;20.73;72.59;101362.88;5077186;28;20060;-67
2021/08/11 04:35:45;;;;;;;6.60;2.33;;;;;;;20.77;72.10;101366.56;5076704;28;20373;-67
2021/08/11 04:38:12;;;;;;;4.00;2.17;;;;;;;20.72;71.96;101364.88;5076808;28;20059;-61
2021/08/11 04:40:39;;;;;;;5.75;2.60;;;;;;;20.76;72.54;101362.97;5057918;28;20067;-66
2021/08/11 04:43:07;;;;;;;4.75;2.10;;;;;;;20.67;72.60;101370.75;5076046;28;20059;-67
2021/08/11 04:45:38;;;;;;;5.20;2.28;;;;;;;20.73;72.36;101371.28;5076574;28;20051;-67
2021/08/11 04:48:05;;;;;;;4.40;2.42;;;;;;;20.63;71.93;101372.66;5076660;28;20048;-67
2021/08/11 04:50:32;;;;;;;5.65;2.20;;;;;;;20.64;72.21;101374.25;5075625;28;20056;-61
2021/08/11 04:52:59;;;;;;;5.07;2.38;;;;;;;20.55;73.50;101372.84;5076592;28;20443;-61
2021/08/11 04:55:27;;;;;;;5.00;2.10;;;;;;;20.54;72.78;101369.25;5057632;28;20072;-60
2021/08/11 04:57:54;;;;;;;6.57;2.45;;;;;;;20.48;73.27;101367.91;5057952;28;20049;-62
2021/08/11 05:00:21;;;;;;;5.22;2.42;;;;;;;20.52;73.18;101366.00;5076074;28;20518;-66
2021/08/11 05:02:48;;;;;;;6.03;2.60;;;;;;;20.46;73.28;101381.47;5058507;28;20053;-67
2021/08/11 05:05:16;;;;;;;7.88;2.47;;;;;;;20.51;73.70;101371.94;5076146;28;20064;-67
2021/08/11 05:07:44;;;;;;;7.05;2.60;;;;;;;20.52;73.19;101384.78;5076290;28;20052;-67
2021/08/11 05:10:11;;;;;;;4.28;2.28;;;;;;;20.74;72.80;101381.28;5075384;28;20376;-62
2021/08/11 05:12:38;;;;;;;5.00;2.22;;;;;;;20.80;72.24;101382.66;5079267;28;20427;-61
2021/08/11 05:15:06;;;;;;;5.53;2.47;;;;;;;20.73;72.44;101385.28;5096582;28;20055;-62
2021/08/11 05:17:33;;;;;;;7.32;3.15;;;;;;;20.77;72.52;101388.94;5096228;28;20044;-61
2021/08/11 05:20:01;;;;;;;6.88;2.75;;;;;;;20.68;72.02;101385.53;5095821;28;20048;-62
2021/08/11 05:22:28;;;;;;;4.88;2.38;;;;;;;20.77;72.06;101380.56;5095622;28;20556;-62
2021/08/11 05:24:55;;;;;;;4.93;2.60;;;;;;;20.79;71.93;101386.59;5095147;28;20052;-60
2021/08/11 05:27:23;;;;;;;6.70;2.30;;;;;;;20.70;72.02;101395.22;5095885;28;20491;-60
2021/08/11 05:29:50;;;;;;;6.00;2.50;;;;;;;20.75;72.70;101394.94;5095918;28;20043;-66
2021/08/11 05:32:17;;;;;;;7.50;2.60;;;;;;;20.80;71.84;101396.66;5095811;28;20044;-67
2021/08/11 05:34:44;;;;;;;6.65;2.30;;;;;;;20.76;72.04;101404.16;5077707;28;20044;-67
2021/08/11 05:37:12;;;;;;;6.10;2.20;;;;;;;20.78;71.65;101410.19;5095935;28;20059;-67
2021/08/11 05:39:40;;;;;;;7.78;2.97;;;;;;;20.82;72.17;101399.88;5077700;28;20623;-66
2021/08/11 05:42:07;;;;;;;5.90;2.90;;;;;;;20.92;71.50;101405.72;5094667;28;20048;-68
2021/08/11 05:44:34;;;;;;;4.03;2.30;;;;;;;20.82;71.63;101406.28;5095566;28;20048;-68
2021/08/11 05:47:04;;;;;;;5.90;2.63;;;;;;;20.93;72.15;101407.34;5076868;28;20059;-69
2021/08/11 05:49:34;;;;;;;9.77;2.57;;;;;;;20.91;71.62;101408.88;5095650;28;20082;-68
2021/08/11 05:52:01;;;;;;;4.90;2.20;;;;;;;20.84;72.10;101408.72;5076103;28;20051;-67
2021/08/11 05:54:28;;;;;;;10.20;2.80;;;;;;;20.94;71.90;101422.13;5087870;28;20044;-67
2021/08/11 05:56:55;;;;;;;8.50;2.60;;;;;;;21.01;72.08;101416.72;5064180;28;20410;-62
2021/08/11 05:59:22;;;;;;;5.85;2.72;;;;;;;21.01;71.44;101416.72;5080045;28;20049;-61
2021/08/11 06:01:49;;;;;;;8.00;2.97;;;;;;;20.88;71.36;101418.84;5077047;28;20048;-61
2021/08/11 06:04:19;;;;;;;9.50;2.75;;;;;;;20.70;72.23;101431.63;5077389;28;20048;-62
2021/08/11 06:06:46;;;;;;;8.70;3.00;;;;;;;20.71;72.69;101429.63;5095005;28;20059;-61
2021/08/11 06:09:14;;;;;;;5.97;2.60;;;;;;;20.90;72.14;101426.88;5094832;28;20055;-61
2021/08/11 06:11:41;;;;;;;10.23;2.72;;;;;;;20.85;71.66;101422.34;5094511;28;20048;-65
2021/08/11 06:14:08;;;;;;;9.18;3.13;;;;;;;20.89;71.86;101442.03;5080678;28;20044;-67
2021/08/11 06:16:37;;;;;;;13.43;3.15;;;;;;;20.98;71.26;101431.44;5074449;28;20052;-67
2021/08/11 06:19:05;;;;;;;16.05;3.72;;;;;;;21.00;71.75;101429.94;5080484;28;20052;-68
2021/08/11 06:21:32;;;;;;;17.58;5.57;;;;;;;21.05;71.48;101437.22;5093932;28;20424;-62
2021/08/11 06:23:59;;;;;;;13.68;3.97;;;;;;;20.98;71.37;101434.25;5094798;28;20044;-62
2021/08/11 06:26:27;;;;;;;12.15;3.58;;;;;;;21.14;71.84;101430.25;5094721;28;20052;-61
2021/08/11 06:28:55;;;;;;;8.52;2.90;;;;;;;21.21;71.23;101432.41;5094755;28;20769;-61
2021/08/11 06:31:24;;;;;;;12.70;3.30;;;;;;;20.89;70.89;101433.63;5086603;28;20049;-61
2021/08/11 06:33:52;;;;;;;9.45;3.40;;;;;;;20.12;73.29;101441.72;5074479;28;20056;-62
2021/08/11 06:36:20;;;;;;;5.88;2.53;;;;;;;20.81;73.70;101443.06;5061150;28;20047;-67
2021/08/11 06:38:48;;;;;;;8.63;3.22;;;;;;;21.07;72.10;101437.69;5094536;28;20052;-68
2021/08/11 06:41:16;;;;;;;8.15;3.58;;;;;;;20.93;71.34;101429.75;5094269;28;20479;-67
2021/08/11 06:43:55;;;;;;;11.68;3.50;;;;;;;21.12;71.41;101443.00;5076215;28;20040;-61
2021/08/11 06:46:23;;;;;;;9.77;3.63;;;;;;;20.71;72.48;101447.22;5075098;28;20067;-62
2021/08/11 06:48:53;;;;;;;10.65;3.85;;;;;;;20.66;73.00;101446.72;5075690;28;20052;-68
2021/08/11 06:51:20;;;;;;;11.95;3.92;;;;;;;20.45;74.30;101446.19;5094373;28;20044;-65
2021/08/11 06:53:47;;;;;;;8.60;3.95;;;;;;;20.05;75.06;101440.72;5092789;28;20056;-67
2021/08/11 06:56:15;;;;;;;10.63;4.00;;;;;;;20.23;75.74;101435.63;5093856;28;20513;-68
2021/08/11 06:58:42;;;;;;;8.73;3.47;;;;;;;20.62;75.70;101432.63;5092375;28;20051;-61
2021/08/11 07:01:09;;;;;;;10.85;4.20;;;;;;;20.13;75.93;101434.97;5073666;28;20698;-68
2021/08/11 07:03:37;;;;;;;9.80;3.80;;;;;;;20.28;77.67;101433.38;5094161;28;20097;-69
2021/08/11 07:06:06;;;;;;;21.67;4.05;;;;;;;20.35;77.39;101430.75;5093680;28;20063;-68
2021/08/11 07:08:33;;;;;;;9.57;3.47;;;;;;;20.76;75.30;101429.34;5071801;28;20067;-61
2021/08/11 07:11:00;;;;;;;15.10;4.25;;;;;;;20.71;72.91;101432.44;5090942;28;20067;-63
2021/08/11 07:13:27;;;;;;;7.82;3.22;;;;;;;19.92;76.01;101444.78;5084172;28;20041;-63
2021/08/11 07:15:55;;;;;;;10.27;3.58;;;;;;;20.64;74.92;101435.06;5090530;28;20052;-61
2021/08/11 07:18:22;;;;;;;6.88;3.10;;;;;;;21.15;72.42;101436.66;5093266;28;20055;-64
2021/08/11 07:20:49;;;;;;;7.68;3.47;;;;;;;20.77;71.59;101436.56;5093236;28;20052;-64
2021/08/11 07:23:17;;;;;;;12.77;3.47;;;;;;;21.12;70.75;101451.41;5074055;28;20047;-62
2021/08/11 07:25:44;;;;;;;6.47;3.20;;;;;;;20.75;71.89;101448.13;5093038;28;20059;-62
2021/08/11 07:28:12;;;;;;;7.22;3.08;;;;;;;21.25;70.67;101448.09;5093658;28;20048;-67
2021/08/11 07:30:41;;;;;;;8.95;3.38;;;;;;;20.62;70.27;101451.41;5092795;28;20498;-69
2021/08/11 07:33:09;;;;;;;7.00;2.88;;;;;;;20.78;70.94;101460.59;5093821;28;20490;-63
2021/08/11 07:35:36;;;;;;;7.68;3.10;;;;;;;20.25;71.86;101458.47;5074866;28;20052;-69
2021/08/11 07:38:04;;;;;;;5.57;2.92;;;;;;;20.14;71.18;101463.75;5093789;28;20054;-70
2021/08/11 07:40:33;;;;;;;6.95;2.97;;;;;;;20.57;70.29;101460.91;5079600;28;20500;-70
2021/08/11 07:43:01;;;;;;;5.75;2.75;;;;;;;20.79;68.71;101462.22;5075477;28;20040;-69
2021/08/11 07:45:30;;;;;;;7.65;2.85;;;;;;;20.51;69.77;101459.53;5068224;28;20052;-64
2021/08/11 07:47:58;;;;;;;7.50;2.78;;;;;;;20.85;68.65;101464.34;5073337;28;20045;-63
2021/08/11 07:50:27;;;;;;;9.68;2.80;;;;;;;20.99;68.77;101463.94;5074755;28;20049;-63
2021/08/11 07:52:55;;;;;;;6.03;2.53;;;;;;;21.74;67.09;101458.72;5078519;28;20052;-70
2021/08/11 07:55:23;;;;;;;7.47;2.80;;;;;;;21.29;66.80;101458.59;5087090;28;20067;-70
2021/08/11 07:57:50;;;;;;;5.60;2.22;;;;;;;21.97;65.54;101460.41;5094600;28;20063;-69
2021/08/11 08:00:19;;;;;;;8.88;2.85;;;;;;;22.03;63.66;101452.50;5094188;28;20052;-68
2021/08/11 08:02:47;;;;;;;6.07;2.50;;;;;;;21.83;64.37;101456.50;5081072;28;20045;-70
2021/08/11 08:05:15;;;;;;;8.27;2.78;;;;;;;22.29;62.94;101441.34;5087249;28;20040;-70
2021/08/11 08:07:43;;;;;;;7.47;2.33;;;;;;;22.69;62.07;101436.00;5093444;28;20048;-70
2021/08/11 08:10:11;;;;;;;7.95;2.95;;;;;;;22.54;61.64;101434.19;5093322;28;20048;-70
2021/08/11 08:12:40;;;;;;;6.32;2.60;;;;;;;22.82;60.83;101434.59;5074976;28;20044;-70
2021/08/11 08:15:08;;;;;;;6.80;3.10;;;;;;;22.51;60.23;101434.88;5066704;28;20048;-71
2021/08/11 08:17:37;;;;;;;6.93;2.97;;;;;;;22.10;61.63;101433.81;5073674;28;20056;-69
2021/08/11 08:20:15;;;;;;;7.40;2.97;;;;;;;22.69;61.30;101426.75;5056942;28;20057;-69
2021/08/11 08:22:42;;;;;;;6.30;2.75;;;;;;;22.77;59.28;101432.09;5065820;28;20068;-70
2021/08/11 08:25:10;;;;;;;5.93;2.70;;;;;;;22.81;60.14;101423.72;5074835;28;20044;-69
2021/08/11 08:27:38;;;;;;;7.93;3.33;;;;;;;22.43;61.06;101429.53;5093526;28;20051;-68
2021/08/11 08:30:07;;;;;;;9.32;2.72;;;;;;;22.71;59.95;101432.81;5093250;28;20566;-68
2021/08/11 08:32:34;;;;;;;7.10;2.95;;;;;;;22.84;60.36;101429.41;5092108;28;20036;-70
2021/08/11 08:35:01;;;;;;;7.28;3.17;;;;;;;22.95;58.82;101438.81;5092952;28;20376;-69
2021/08/11 08:37:33;;;;;;;9.52;3.20;;;;;;;23.03;59.12;101445.34;5093066;28;20427;-70
2021/08/11 08:40:10;;;;;;;8.38;3.03;;;;;;;23.15;58.64;101428.25;5074602;28;20495;-69
2021/08/11 08:42:38;;;;;;;9.93;2.92;;;;;;;22.72;59.22;101437.22;5074280;28;20056;-71
2021/08/11 08:45:06;;;;;;;7.88;3.10;;;;;;;22.77;59.84;101437.72;5094208;28;20067;-70
2021/08/11 08:47:37;;;;;;;7.95;3.28;;;;;;;21.72;62.26;101439.47;5077940;28;20040;-70
2021/08/11 08:50:05;;;;;;;;;;;;;;;21.66;63.49;101432.53;5079139;28;20503;-69
2021/08/11 08:52:32;;;;;;;7.65;3.70;;;;;;;22.29;62.04;101430.09;5096378;28;19920;-70
2021/08/11 08:55:00;;;;;;;7.55;3.30;;;;;;;22.43;61.32;101435.13;5078581;28;20048;-69
2021/08/11 08:57:28;;;;;;;11.55;3.33;;;;;;;22.57;60.50;101432.59;5085038;28;20495;-69
2021/08/11 08:59:56;;;;;;;6.20;3.15;;;;;;;22.51;60.74;101442.50;5096790;28;20047;-70
2021/08/11 09:02:23;;;;;;;7.05;3.13;;;;;;;22.27;60.35;101443.69;5096267;28;20036;-69
2021/08/11 09:04:51;;;;;;;12.30;3.42;;;;;;;22.27;60.28;101443.69;5095769;28;20052;-68
2021/08/11 09:07:19;;;;;;;8.75;3.28;;;;;;;22.24;61.46;101441.66;5097178;28;20062;-69
2021/08/11 09:09:47;;;;;;;7.18;3.13;;;;;;;22.34;61.23;101439.03;5096581;28;20051;-69
2021/08/11 09:12:17;;;;;;;6.90;3.30;;;;;;;22.01;61.79;101446.44;5095607;28;20078;-69
2021/08/11 09:14:47;;;;;;;9.82;3.65;;;;;;;22.24;61.46;101442.47;5095134;28;20059;-69
2021/08/11 09:17:36;;;;;;;7.93;3.42;;;;;;;22.14;61.31;101436.66;5094639;28;20040;-70
2021/08/11 09:20:05;;;;;;;;;;;;;;;21.27;64.16;101431.72;5061510;28;20047;-70
2021/08/11 09:22:46;;;;;;;9.85;3.70;;;;;;;21.57;63.66;101425.50;5076605;28;19927;-71
2021/08/11 09:25:14;;;;;;;8.52;3.50;;;;;;;21.65;63.15;101435.69;5077640;28;20052;-71
2021/08/11 09:27:43;;;;;;;10.30;3.60;;;;;;;21.88;62.64;101428.19;5060008;28;20047;-70
2021/08/11 09:30:24;;;;;;;8.85;4.05;;;;;;;21.97;62.15;101437.97;5059056;28;20052;-69
2021/08/11 09:33:02;;;;;;;9.45;3.88;;;;;;;21.59;62.98;101426.78;5093766;28;20515;-69
2021/08/11 09:35:34;;;;;;;10.02;3.72;;;;;;;21.77;62.59;101430.75;5077284;28;20044;-70
2021/08/11 09:38:12;;;;;;;6.38;3.10;;;;;;;22.09;61.59;101437.78;5058151;28;20055;-70
2021/08/11 09:40:41;;;;;;;6.32;3.53;;;;;;;22.35;60.73;101423.78;5075269;28;20052;-70
2021/08/11 09:43:10;;;;;;;9.13;3.40;;;;;;;22.72;60.38;101420.38;5093907;28;20077;-70
2021/08/11 09:45:47;;;;;;;6.97;3.05;;;;;;;22.60;59.75;101423.41;5078231;28;20383;-70
2021/08/11 09:48:16;;;;;;;6.03;3.40;;;;;;;22.70;59.46;101426.38;5057482;28;20052;-70
2021/08/11 09:50:47;;;;;;;10.63;3.42;;;;;;;22.89;59.37;101431.09;5057520;28;20068;-68
2021/08/11 09:53:17;;;;;;;10.48;4.07;;;;;;;23.03;57.83;101420.84;5056269;28;20055;-70
2021/08/11 09:56:07;;;;;;;5.78;3.25;;;;;;;23.07;57.69;101420.91;5093612;28;20048;-69
2021/08/11 09:58:41;;;;;;;7.75;4.00;;;;;;;23.15;57.34;101417.00;5095662;28;20651;-70
2021/08/11 10:01:16;;;;;;;6.75;3.50;;;;;;;23.59;56.33;101432.03;5093970;28;20055;-69
2021/08/11 10:04:01;;;;;;;8.38;3.50;;;;;;;23.86;56.04;101422.31;5090769;28;20056;-70
2021/08/11 10:06:33;;;;;;;8.80;3.97;;;;;;;23.76;55.69;101419.38;5075970;28;20048;-70
2021/08/11 10:09:15;;;;;;;10.32;3.53;;;;;;;23.56;55.49;101421.56;5077000;28;20527;-70
2021/08/11 10:11:51;;;;;;;7.43;3.65;;;;;;;22.84;58.05;101417.38;5093807;28;20059;-70
2021/08/11 10:14:38;;;;;;;6.15;3.75;;;;;;;23.29;56.97;101412.38;5095055;28;20063;-71
2021/08/11 10:17:06;;;;;;;10.73;4.15;;;;;;;23.22;57.19;101409.44;5089459;28;20051;-69
2021/08/11 10:19:34;;;;;;;8.90;3.78;;;;;;;22.94;57.81;101413.91;5094527;28;20058;-70
2021/08/11 10:22:19;;;;;;;7.53;3.58;;;;;;;23.55;55.98;101407.88;5093662;28;20076;-69
2021/08/11 10:24:50;;;;;;;7.78;3.50;;;;;;;23.19;56.31;101413.03;5057858;28;20079;-69
2021/08/11 10:27:18;;;;;;;10.23;3.80;;;;;;;23.02;56.78;101415.59;5075653;28;20056;-70
2021/08/11 10:29:47;;;;;;;7.82;3.90;;;;;;;22.93;57.18;101418.72;5093991;28;20594;-72
2021/08/11 10:32:14;;;;;;;7.75;3.50;;;;;;;23.22;56.25;101409.44;5076096;28;20059;-70
2021/08/11 10:34:43;;;;;;;8.00;3.85;;;;;;;22.95;56.91;101415.50;5050537;28;20048;-71
2021/08/11 10:37:12;;;;;;;6.18;3.53;;;;;;;23.05;57.12;101409.22;5055234;28;20055;-71
2021/08/11 10:39:40;;;;;;;8.10;4.40;;;;;;;22.82;57.17;101414.91;5075514;28;20140;-72
2021/08/11 10:42:11;;;;;;;8.25;3.67;;;;;;;23.06;56.85;101417.28;5094229;28;20059;-70
2021/08/11 10:44:39;;;;;;;11.27;6.15;;;;;;;23.40;55.58;101406.91;5086976;28;20059;-71
2021/08/11 10:47:07;;;;;;;8.43;4.53;;;;;;;23.35;55.89;101418.50;5094468;28;20044;-69
2021/08/11 10:49:54;;;;;;;10.43;4.00;;;;;;;23.39;55.98;101410.91;5094290;28;20048;-70
2021/08/11 10:52:22;;;;;;;9.57;3.88;;;;;;;23.82;54.66;101417.81;5074637;28;20048;-70
2021/08/11 10:54:51;;;;;;;11.63;3.97;;;;;;;23.40;54.92;101412.53;5073615;28;20048;-71
2021/08/11 10:57:34;;;;;;;9.40;3.83;;;;;;;23.19;56.00;101410.22;5086899;28;20052;-70
2021/08/11 11:00:06;;;;;;;10.07;4.25;;;;;;;23.42;55.28;101404.50;5074934;28;20138;-70
2021/08/11 11:02:40;;;;;;;9.90;3.95;;;;;;;23.33;55.12;101404.00;5093617;28;20048;-71
2021/08/11 11:05:28;;;;;;;8.60;4.57;;;;;;;23.41;55.13;101400.88;5073813;28;20167;-70
2021/08/11 11:08:13;;;;;;;9.18;4.68;;;;;;;23.42;54.50;101396.91;5092513;28;20048;-69
2021/08/11 11:10:45;;;;;;;7.45;4.10;;;;;;;23.69;53.85;101391.16;5091894;28;20048;-70
2021/08/11 11:13:32;;;;;;;9.50;4.57;;;;;;;23.49;53.97;101393.34;5057285;28;20052;-70
2021/08/11 11:16:01;;;;;;;9.02;3.85;;;;;;;24.08;52.31;101392.38;5073864;28;20059;-70
2021/08/11 11:18:29;;;;;;;6.45;3.88;;;;;;;23.94;52.15;101387.41;5093479;28;20052;-71
2021/08/11 11:20:56;;;;;;;8.38;3.50;;;;;;;23.83;53.20;101388.50;5059767;28;20067;-70
2021/08/11 11:23:44;;;;;;;10.63;4.53;;;;;;;24.59;51.39;101381.09;5058644;28;20055;-70
2021/08/11 11:26:15;;;;;;;6.78;3.40;;;;;;;24.83;50.09;101374.84;5093203;28;20414;-71
2021/08/11 11:29:08;;;;;;;9.68;3.50;;;;;;;24.71;49.96;101369.53;5070483;28;20052;-71
2021/08/11 11:31:51;;;;;;;7.85;3.40;;;;;;;25.02;49.56;101369.72;5086301;28;20045;-71
2021/08/11 11:34:19;;;;;;;5.50;3.17;;;;;;;25.01;49.05;101368.13;5073132;28;20044;-72
2021/08/11 11:36:55;;;;;;;5.93;3.17;;;;;;;24.64;49.30;101369.47;5092199;28;20052;-64